sensor_id;sensor_type;location;lat;lon;timestamp;P1;durP1;ratioP1;P2;durP2;ratioP2
75542;SDS011;64129;53.508;10.476;2022-11-12T00:02:42;11.23;;;6.82;;
75542;SDS011;64129;53.508;10.476;2022-11-12T00:05:27;10.55;;;6.82;;
75542;SDS011;64129;53.508;10.476;2022-11-12T00:08:12;9.85;;;6.55;;
75542;SDS011;64129;53.508;10.476;2022-11-12T00:10:57;10.13;;;6.93;;
75542;SDS011;64129;53.508;10.476;2022-11-12T00:13:42;11.45;;;7.15;;
75542;SDS011;64129;53.508;10.476;2022-11-12T00:16:27;13.25;;;7.63;;
75542;SDS011;64129;53.508;10.476;2022-11-12T00:19:12;10.10;;;6.13;;
75542;SDS011;64129;53.508;10.476;2022-11-12T00:21:57;11.35;;;6.88;;
75542;SDS011;64129;53.508;10.476;2022-11-12T00:24:42;11.40;;;7.13;;
75542;SDS011;64129;53.508;10.476;2022-11-12T00:27:27;14.32;;;7.05;;
75542;SDS011;64129;53.508;10.476;2022-11-12T00:30:12;13.63;;;7.20;;
75542;SDS011;64129;53.508;10.476;2022-11-12T00:33:00;12.45;;;7.80;;
75542;SDS011;64129;53.508;10.476;2022-11-12T00:35:46;15.32;;;8.50;;
75542;SDS011;64129;53.508;10.476;2022-11-12T00:38:32;13.90;;;8.25;;
75542;SDS011;64129;53.508;10.476;2022-11-12T00:41:17;14.02;;;7.75;;
75542;SDS011;64129;53.508;10.476;2022-11-12T00:44:02;12.05;;;7.85;;
75542;SDS011;64129;53.508;10.476;2022-11-12T00:46:48;14.10;;;7.95;;
75542;SDS011;64129;53.508;10.476;2022-11-12T00:49:33;12.73;;;8.45;;
75542;SDS011;64129;53.508;10.476;2022-11-12T00:52:18;11.93;;;7.82;;
75542;SDS011;64129;53.508;10.476;2022-11-12T00:55:03;11.43;;;7.85;;
75542;SDS011;64129;53.508;10.476;2022-11-12T00:57:48;13.98;;;8.05;;
75542;SDS011;64129;53.508;10.476;2022-11-12T01:00:33;16.20;;;8.77;;
75542;SDS011;64129;53.508;10.476;2022-11-12T01:03:18;15.73;;;8.27;;
75542;SDS011;64129;53.508;10.476;2022-11-12T01:06:07;14.93;;;7.95;;
75542;SDS011;64129;53.508;10.476;2022-11-12T01:08:54;14.85;;;8.60;;
75542;SDS011;64129;53.508;10.476;2022-11-12T01:11:39;16.85;;;9.18;;
75542;SDS011;64129;53.508;10.476;2022-11-12T01:14:24;16.25;;;9.48;;
75542;SDS011;64129;53.508;10.476;2022-11-12T01:17:09;12.25;;;8.48;;
75542;SDS011;64129;53.508;10.476;2022-11-12T01:19:54;18.98;;;9.90;;
75542;SDS011;64129;53.508;10.476;2022-11-12T01:22:39;14.13;;;9.35;;
75542;SDS011;64129;53.508;10.476;2022-11-12T01:25:24;14.13;;;8.77;;
75542;SDS011;64129;53.508;10.476;2022-11-12T01:28:09;16.13;;;9.25;;
75542;SDS011;64129;53.508;10.476;2022-11-12T01:30:54;16.73;;;9.25;;
75542;SDS011;64129;53.508;10.476;2022-11-12T01:33:42;17.63;;;8.68;;
75542;SDS011;64129;53.508;10.476;2022-11-12T01:36:30;14.52;;;8.30;;
75542;SDS011;64129;53.508;10.476;2022-11-12T01:39:18;13.30;;;9.30;;
75542;SDS011;64129;53.508;10.476;2022-11-12T01:42:03;15.55;;;9.45;;
75542;SDS011;64129;53.508;10.476;2022-11-12T01:44:50;14.57;;;9.02;;
75542;SDS011;64129;53.508;10.476;2022-11-12T01:47:35;15.88;;;9.07;;
75542;SDS011;64129;53.508;10.476;2022-11-12T01:50:22;15.68;;;8.95;;
75542;SDS011;64129;53.508;10.476;2022-11-12T01:53:10;14.25;;;8.45;;
75542;SDS011;64129;53.508;10.476;2022-11-12T01:55:58;14.57;;;8.75;;
75542;SDS011;64129;53.508;10.476;2022-11-12T02:01:30;13.95;;;8.95;;
75542;SDS011;64129;53.508;10.476;2022-11-12T02:04:15;16.27;;;8.55;;
75542;SDS011;64129;53.508;10.476;2022-11-12T02:07:01;13.45;;;9.55;;
75542;SDS011;64129;53.508;10.476;2022-11-12T02:09:47;15.30;;;8.32;;
75542;SDS011;64129;53.508;10.476;2022-11-12T02:12:32;12.52;;;8.82;;
75542;SDS011;64129;53.508;10.476;2022-11-12T02:15:37;14.23;;;9.07;;
75542;SDS011;64129;53.508;10.476;2022-11-12T02:18:24;17.48;;;8.55;;
75542;SDS011;64129;53.508;10.476;2022-11-12T02:21:09;14.73;;;9.30;;
75542;SDS011;64129;53.508;10.476;2022-11-12T02:23:58;13.63;;;8.00;;
75542;SDS011;64129;53.508;10.476;2022-11-12T02:26:45;16.27;;;8.82;;
75542;SDS011;64129;53.508;10.476;2022-11-12T02:29:32;16.15;;;8.68;;
75542;SDS011;64129;53.508;10.476;2022-11-12T02:32:17;14.38;;;8.77;;
75542;SDS011;64129;53.508;10.476;2022-11-12T02:35:03;13.43;;;9.55;;
75542;SDS011;64129;53.508;10.476;2022-11-12T02:42:00;14.88;;;7.95;;
75542;SDS011;64129;53.508;10.476;2022-11-12T02:44:45;15.65;;;8.75;;
75542;SDS011;64129;53.508;10.476;2022-11-12T02:47:30;17.02;;;9.38;;
75542;SDS011;64129;53.508;10.476;2022-11-12T02:50:15;16.23;;;9.35;;
75542;SDS011;64129;53.508;10.476;2022-11-12T02:53:00;16.75;;;9.50;;
75542;SDS011;64129;53.508;10.476;2022-11-12T02:55:45;17.05;;;9.93;;
75542;SDS011;64129;53.508;10.476;2022-11-12T02:58:30;15.25;;;8.70;;
75542;SDS011;64129;53.508;10.476;2022-11-12T03:01:15;14.38;;;9.32;;
75542;SDS011;64129;53.508;10.476;2022-11-12T03:04:00;17.23;;;9.27;;
75542;SDS011;64129;53.508;10.476;2022-11-12T03:06:45;11.75;;;8.02;;
75542;SDS011;64129;53.508;10.476;2022-11-12T03:09:30;14.63;;;9.18;;
75542;SDS011;64129;53.508;10.476;2022-11-12T03:12:15;15.77;;;10.48;;
75542;SDS011;64129;53.508;10.476;2022-11-12T03:15:00;14.65;;;9.90;;
75542;SDS011;64129;53.508;10.476;2022-11-12T03:17:45;14.57;;;10.10;;
75542;SDS011;64129;53.508;10.476;2022-11-12T03:20:30;18.60;;;11.07;;
75542;SDS011;64129;53.508;10.476;2022-11-12T03:23:18;14.32;;;8.75;;
75542;SDS011;64129;53.508;10.476;2022-11-12T03:26:03;13.68;;;9.10;;
75542;SDS011;64129;53.508;10.476;2022-11-12T03:28:49;13.10;;;9.57;;
75542;SDS011;64129;53.508;10.476;2022-11-12T03:31:35;15.52;;;9.85;;
75542;SDS011;64129;53.508;10.476;2022-11-12T03:34:20;13.98;;;9.68;;
75542;SDS011;64129;53.508;10.476;2022-11-12T03:37:05;12.55;;;9.30;;
75542;SDS011;64129;53.508;10.476;2022-11-12T03:39:53;16.65;;;9.65;;
75542;SDS011;64129;53.508;10.476;2022-11-12T03:42:37;15.68;;;9.55;;
75542;SDS011;64129;53.508;10.476;2022-11-12T03:45:23;14.68;;;10.18;;
75542;SDS011;64129;53.508;10.476;2022-11-12T03:48:10;16.20;;;10.25;;
75542;SDS011;64129;53.508;10.476;2022-11-12T03:50:58;17.85;;;10.93;;
75542;SDS011;64129;53.508;10.476;2022-11-12T03:53:43;13.27;;;9.10;;
75542;SDS011;64129;53.508;10.476;2022-11-12T03:56:28;19.23;;;10.38;;
75542;SDS011;64129;53.508;10.476;2022-11-12T03:59:13;21.10;;;11.25;;
75542;SDS011;64129;53.508;10.476;2022-11-12T04:01:58;16.85;;;10.43;;
75542;SDS011;64129;53.508;10.476;2022-11-12T04:04:43;16.83;;;10.75;;
75542;SDS011;64129;53.508;10.476;2022-11-12T04:11:21;16.63;;;11.05;;
75542;SDS011;64129;53.508;10.476;2022-11-12T04:14:06;24.58;;;11.23;;
75542;SDS011;64129;53.508;10.476;2022-11-12T04:16:51;19.10;;;10.15;;
75542;SDS011;64129;53.508;10.476;2022-11-12T04:19:55;16.08;;;9.98;;
75542;SDS011;64129;53.508;10.476;2022-11-12T04:22:59;19.83;;;11.10;;
75542;SDS011;64129;53.508;10.476;2022-11-12T04:25:43;17.88;;;10.57;;
75542;SDS011;64129;53.508;10.476;2022-11-12T04:28:48;14.73;;;11.25;;
75542;SDS011;64129;53.508;10.476;2022-11-12T04:31:52;17.77;;;10.20;;
75542;SDS011;64129;53.508;10.476;2022-11-12T04:34:37;18.55;;;11.15;;
75542;SDS011;64129;53.508;10.476;2022-11-12T04:37:22;17.30;;;10.93;;
75542;SDS011;64129;53.508;10.476;2022-11-12T04:40:16;16.95;;;11.15;;
75542;SDS011;64129;53.508;10.476;2022-11-12T04:43:21;15.05;;;10.13;;
75542;SDS011;64129;53.508;10.476;2022-11-12T04:46:25;15.30;;;9.98;;
75542;SDS011;64129;53.508;10.476;2022-11-12T04:49:10;19.17;;;10.40;;
75542;SDS011;64129;53.508;10.476;2022-11-12T04:51:55;16.88;;;9.82;;
75542;SDS011;64129;53.508;10.476;2022-11-12T04:54:49;18.50;;;10.65;;
75542;SDS011;64129;53.508;10.476;2022-11-12T04:57:35;16.13;;;10.80;;
75542;SDS011;64129;53.508;10.476;2022-11-12T05:00:20;19.20;;;10.60;;
75542;SDS011;64129;53.508;10.476;2022-11-12T05:03:05;16.60;;;10.90;;
75542;SDS011;64129;53.508;10.476;2022-11-12T05:05:51;15.32;;;10.25;;
75542;SDS011;64129;53.508;10.476;2022-11-12T05:08:35;17.20;;;10.82;;
75542;SDS011;64129;53.508;10.476;2022-11-12T05:11:20;19.00;;;11.38;;
75542;SDS011;64129;53.508;10.476;2022-11-12T05:14:05;16.80;;;10.18;;
75542;SDS011;64129;53.508;10.476;2022-11-12T05:16:50;15.57;;;9.90;;
75542;SDS011;64129;53.508;10.476;2022-11-12T05:19:36;18.15;;;11.48;;
75542;SDS011;64129;53.508;10.476;2022-11-12T05:22:21;17.73;;;10.88;;
75542;SDS011;64129;53.508;10.476;2022-11-12T05:25:24;20.58;;;10.30;;
75542;SDS011;64129;53.508;10.476;2022-11-12T05:28:09;18.25;;;10.65;;
75542;SDS011;64129;53.508;10.476;2022-11-12T05:30:54;18.92;;;10.25;;
75542;SDS011;64129;53.508;10.476;2022-11-12T05:33:39;19.95;;;11.38;;
75542;SDS011;64129;53.508;10.476;2022-11-12T05:36:24;17.23;;;11.48;;
75542;SDS011;64129;53.508;10.476;2022-11-12T05:39:08;23.20;;;12.88;;
75542;SDS011;64129;53.508;10.476;2022-11-12T05:41:53;18.13;;;11.32;;
75542;SDS011;64129;53.508;10.476;2022-11-12T05:44:55;19.40;;;10.77;;
75542;SDS011;64129;53.508;10.476;2022-11-12T05:47:40;17.00;;;10.80;;
75542;SDS011;64129;53.508;10.476;2022-11-12T05:50:26;17.27;;;10.93;;
75542;SDS011;64129;53.508;10.476;2022-11-12T05:53:18;19.30;;;10.77;;
75542;SDS011;64129;53.508;10.476;2022-11-12T05:56:04;17.52;;;10.93;;
75542;SDS011;64129;53.508;10.476;2022-11-12T05:58:50;19.05;;;10.80;;
75542;SDS011;64129;53.508;10.476;2022-11-12T06:01:35;15.88;;;10.70;;
75542;SDS011;64129;53.508;10.476;2022-11-12T06:04:29;17.23;;;10.65;;
75542;SDS011;64129;53.508;10.476;2022-11-12T06:07:14;17.30;;;9.98;;
75542;SDS011;64129;53.508;10.476;2022-11-12T06:09:59;20.45;;;11.20;;
75542;SDS011;64129;53.508;10.476;2022-11-12T06:12:44;16.13;;;10.63;;
75542;SDS011;64129;53.508;10.476;2022-11-12T06:15:29;18.27;;;10.45;;
75542;SDS011;64129;53.508;10.476;2022-11-12T06:18:16;14.60;;;9.43;;
75542;SDS011;64129;53.508;10.476;2022-11-12T06:21:02;14.52;;;9.10;;
75542;SDS011;64129;53.508;10.476;2022-11-12T06:24:03;15.23;;;9.48;;
75542;SDS011;64129;53.508;10.476;2022-11-12T06:26:48;14.65;;;9.98;;
75542;SDS011;64129;53.508;10.476;2022-11-12T06:29:33;17.13;;;10.68;;
75542;SDS011;64129;53.508;10.476;2022-11-12T06:32:18;15.77;;;10.07;;
75542;SDS011;64129;53.508;10.476;2022-11-12T06:35:04;16.50;;;10.35;;
75542;SDS011;64129;53.508;10.476;2022-11-12T06:37:49;17.70;;;10.57;;
75542;SDS011;64129;53.508;10.476;2022-11-12T06:40:34;16.92;;;10.68;;
75542;SDS011;64129;53.508;10.476;2022-11-12T06:43:19;17.75;;;11.57;;
75542;SDS011;64129;53.508;10.476;2022-11-12T06:46:05;17.98;;;11.00;;
75542;SDS011;64129;53.508;10.476;2022-11-12T06:48:52;16.02;;;11.07;;
75542;SDS011;64129;53.508;10.476;2022-11-12T06:51:37;17.25;;;11.48;;
75542;SDS011;64129;53.508;10.476;2022-11-12T06:54:23;17.05;;;10.30;;
75542;SDS011;64129;53.508;10.476;2022-11-12T06:57:08;16.95;;;10.07;;
75542;SDS011;64129;53.508;10.476;2022-11-12T06:59:53;17.00;;;11.38;;
75542;SDS011;64129;53.508;10.476;2022-11-12T07:02:38;18.83;;;10.70;;
75542;SDS011;64129;53.508;10.476;2022-11-12T07:05:23;15.25;;;9.82;;
75542;SDS011;64129;53.508;10.476;2022-11-12T07:08:08;17.88;;;10.60;;
75542;SDS011;64129;53.508;10.476;2022-11-12T07:10:56;18.27;;;11.15;;
75542;SDS011;64129;53.508;10.476;2022-11-12T07:13:42;19.98;;;12.10;;
75542;SDS011;64129;53.508;10.476;2022-11-12T07:16:30;17.67;;;11.07;;
75542;SDS011;64129;53.508;10.476;2022-11-12T07:19:15;17.45;;;10.80;;
75542;SDS011;64129;53.508;10.476;2022-11-12T07:22:00;21.23;;;11.77;;
75542;SDS011;64129;53.508;10.476;2022-11-12T07:24:45;17.40;;;11.00;;
75542;SDS011;64129;53.508;10.476;2022-11-12T07:27:30;20.35;;;12.48;;
75542;SDS011;64129;53.508;10.476;2022-11-12T07:30:15;17.90;;;12.05;;
75542;SDS011;64129;53.508;10.476;2022-11-12T07:33:00;16.67;;;10.60;;
75542;SDS011;64129;53.508;10.476;2022-11-12T07:35:45;16.63;;;10.60;;
75542;SDS011;64129;53.508;10.476;2022-11-12T07:38:31;18.45;;;11.70;;
75542;SDS011;64129;53.508;10.476;2022-11-12T07:41:19;16.33;;;10.20;;
75542;SDS011;64129;53.508;10.476;2022-11-12T07:44:05;15.27;;;10.55;;
75542;SDS011;64129;53.508;10.476;2022-11-12T07:46:50;15.60;;;10.27;;
75542;SDS011;64129;53.508;10.476;2022-11-12T07:49:35;15.35;;;10.55;;
75542;SDS011;64129;53.508;10.476;2022-11-12T07:52:20;17.20;;;10.52;;
75542;SDS011;64129;53.508;10.476;2022-11-12T07:55:05;15.73;;;9.55;;
75542;SDS011;64129;53.508;10.476;2022-11-12T07:57:50;14.15;;;8.07;;
75542;SDS011;64129;53.508;10.476;2022-11-12T08:03:22;12.90;;;9.55;;
75542;SDS011;64129;53.508;10.476;2022-11-12T08:06:07;12.60;;;8.60;;
75542;SDS011;64129;53.508;10.476;2022-11-12T08:08:55;13.32;;;9.05;;
75542;SDS011;64129;53.508;10.476;2022-11-12T08:11:41;15.15;;;8.68;;
75542;SDS011;64129;53.508;10.476;2022-11-12T08:14:26;9.65;;;6.65;;
75542;SDS011;64129;53.508;10.476;2022-11-12T08:17:11;12.38;;;8.48;;
75542;SDS011;64129;53.508;10.476;2022-11-12T08:19:56;14.55;;;8.77;;
75542;SDS011;64129;53.508;10.476;2022-11-12T08:22:41;13.18;;;8.55;;
75542;SDS011;64129;53.508;10.476;2022-11-12T08:25:28;14.05;;;8.82;;
75542;SDS011;64129;53.508;10.476;2022-11-12T08:28:13;11.93;;;7.63;;
75542;SDS011;64129;53.508;10.476;2022-11-12T08:31:05;12.30;;;8.07;;
75542;SDS011;64129;53.508;10.476;2022-11-12T08:33:51;11.73;;;7.93;;
75542;SDS011;64129;53.508;10.476;2022-11-12T08:36:37;11.50;;;7.25;;
75542;SDS011;64129;53.508;10.476;2022-11-12T08:39:23;12.32;;;7.55;;
75542;SDS011;64129;53.508;10.476;2022-11-12T08:42:08;10.73;;;7.03;;
75542;SDS011;64129;53.508;10.476;2022-11-12T08:44:53;12.98;;;7.55;;
75542;SDS011;64129;53.508;10.476;2022-11-12T08:47:38;11.70;;;7.57;;
75542;SDS011;64129;53.508;10.476;2022-11-12T08:50:23;10.55;;;7.57;;
75542;SDS011;64129;53.508;10.476;2022-11-12T08:53:09;9.40;;;7.07;;
75542;SDS011;64129;53.508;10.476;2022-11-12T08:55:56;11.10;;;6.88;;
75542;SDS011;64129;53.508;10.476;2022-11-12T08:58:41;9.98;;;7.80;;
75542;SDS011;64129;53.508;10.476;2022-11-12T09:01:26;11.95;;;6.85;;
75542;SDS011;64129;53.508;10.476;2022-11-12T09:04:11;9.45;;;6.93;;
75542;SDS011;64129;53.508;10.476;2022-11-12T09:06:56;9.90;;;5.88;;
75542;SDS011;64129;53.508;10.476;2022-11-12T09:09:41;8.32;;;5.88;;
75542;SDS011;64129;53.508;10.476;2022-11-12T09:12:26;11.00;;;6.38;;
75542;SDS011;64129;53.508;10.476;2022-11-12T09:15:12;12.20;;;5.97;;
75542;SDS011;64129;53.508;10.476;2022-11-12T09:18:17;9.18;;;6.05;;
75542;SDS011;64129;53.508;10.476;2022-11-12T09:21:04;8.38;;;5.50;;
75542;SDS011;64129;53.508;10.476;2022-11-12T09:23:54;9.75;;;5.57;;
75542;SDS011;64129;53.508;10.476;2022-11-12T09:26:39;9.07;;;6.00;;
75542;SDS011;64129;53.508;10.476;2022-11-12T09:29:24;9.20;;;5.43;;
75542;SDS011;64129;53.508;10.476;2022-11-12T09:32:09;7.55;;;5.47;;
75542;SDS011;64129;53.508;10.476;2022-11-12T09:34:54;8.02;;;5.40;;
75542;SDS011;64129;53.508;10.476;2022-11-12T09:37:39;10.57;;;5.47;;
75542;SDS011;64129;53.508;10.476;2022-11-12T09:40:29;8.57;;;5.63;;
75542;SDS011;64129;53.508;10.476;2022-11-12T09:46:28;7.65;;;5.30;;
75542;SDS011;64129;53.508;10.476;2022-11-12T09:49:22;7.43;;;5.45;;
75542;SDS011;64129;53.508;10.476;2022-11-12T09:52:13;8.48;;;5.47;;
75542;SDS011;64129;53.508;10.476;2022-11-12T09:55:16;8.80;;;5.13;;
75542;SDS011;64129;53.508;10.476;2022-11-12T09:58:09;7.38;;;5.63;;
75542;SDS011;64129;53.508;10.476;2022-11-12T10:00:57;7.38;;;5.20;;
75542;SDS011;64129;53.508;10.476;2022-11-12T10:03:57;7.50;;;5.25;;
75542;SDS011;64129;53.508;10.476;2022-11-12T10:07:01;8.50;;;6.72;;
75542;SDS011;64129;53.508;10.476;2022-11-12T10:25:01;9.38;;;6.18;;
75542;SDS011;64129;53.508;10.476;2022-11-12T10:27:57;8.55;;;5.63;;
75542;SDS011;64129;53.508;10.476;2022-11-12T10:30:45;9.88;;;5.63;;
75542;SDS011;64129;53.508;10.476;2022-11-12T10:33:30;10.32;;;5.75;;
75542;SDS011;64129;53.508;10.476;2022-11-12T10:36:19;7.82;;;5.30;;
75542;SDS011;64129;53.508;10.476;2022-11-12T10:42:23;6.15;;;4.80;;
75542;SDS011;64129;53.508;10.476;2022-11-12T10:45:18;6.75;;;5.57;;
75542;SDS011;64129;53.508;10.476;2022-11-12T10:51:18;8.32;;;5.30;;
75542;SDS011;64129;53.508;10.476;2022-11-12T10:57:17;7.80;;;5.80;;
75542;SDS011;64129;53.508;10.476;2022-11-12T11:02:59;8.07;;;5.47;;
75542;SDS011;64129;53.508;10.476;2022-11-12T11:05:53;7.30;;;5.40;;
75542;SDS011;64129;53.508;10.476;2022-11-12T11:08:51;7.75;;;4.60;;
75542;SDS011;64129;53.508;10.476;2022-11-12T11:11:58;9.07;;;5.35;;
75542;SDS011;64129;53.508;10.476;2022-11-12T11:14:43;8.40;;;5.10;;
75542;SDS011;64129;53.508;10.476;2022-11-12T11:17:28;9.40;;;5.38;;
75542;SDS011;64129;53.508;10.476;2022-11-12T11:29:16;9.18;;;5.30;;
75542;SDS011;64129;53.508;10.476;2022-11-12T11:32:18;5.75;;;4.88;;
75542;SDS011;64129;53.508;10.476;2022-11-12T11:41:30;11.10;;;6.40;;
75542;SDS011;64129;53.508;10.476;2022-11-12T11:44:38;8.10;;;5.47;;
75542;SDS011;64129;53.508;10.476;2022-11-12T11:54:13;7.40;;;5.45;;
75542;SDS011;64129;53.508;10.476;2022-11-12T11:57:23;8.05;;;5.03;;
75542;SDS011;64129;53.508;10.476;2022-11-12T12:00:26;8.88;;;5.68;;
75542;SDS011;64129;53.508;10.476;2022-11-12T12:03:19;8.98;;;5.53;;
75542;SDS011;64129;53.508;10.476;2022-11-12T12:06:17;8.52;;;5.82;;
75542;SDS011;64129;53.508;10.476;2022-11-12T12:09:17;8.10;;;5.18;;
75542;SDS011;64129;53.508;10.476;2022-11-12T12:12:32;6.65;;;5.05;;
75542;SDS011;64129;53.508;10.476;2022-11-12T12:16:23;9.13;;;5.72;;
75542;SDS011;64129;53.508;10.476;2022-11-12T12:21:53;7.40;;;5.15;;
75542;SDS011;64129;53.508;10.476;2022-11-12T12:24:50;6.40;;;5.45;;
75542;SDS011;64129;53.508;10.476;2022-11-12T12:27:44;8.07;;;6.00;;
75542;SDS011;64129;53.508;10.476;2022-11-12T12:30:35;9.82;;;5.70;;
75542;SDS011;64129;53.508;10.476;2022-11-12T12:33:29;11.13;;;5.45;;
75542;SDS011;64129;53.508;10.476;2022-11-12T12:36:16;8.63;;;6.15;;
75542;SDS011;64129;53.508;10.476;2022-11-12T12:39:16;9.85;;;5.55;;
75542;SDS011;64129;53.508;10.476;2022-11-12T12:42:04;9.35;;;5.60;;
75542;SDS011;64129;53.508;10.476;2022-11-12T12:44:54;8.45;;;6.05;;
75542;SDS011;64129;53.508;10.476;2022-11-12T12:47:48;8.98;;;6.53;;
75542;SDS011;64129;53.508;10.476;2022-11-12T12:50:36;8.02;;;5.57;;
75542;SDS011;64129;53.508;10.476;2022-11-12T12:58:56;8.23;;;6.22;;
75542;SDS011;64129;53.508;10.476;2022-11-12T13:01:59;9.68;;;5.90;;
75542;SDS011;64129;53.508;10.476;2022-11-12T13:07:38;10.55;;;5.72;;
75542;SDS011;64129;53.508;10.476;2022-11-12T13:13:24;8.45;;;4.88;;
75542;SDS011;64129;53.508;10.476;2022-11-12T13:19:27;6.72;;;5.13;;
75542;SDS011;64129;53.508;10.476;2022-11-12T13:25:02;9.65;;;6.53;;
75542;SDS011;64129;53.508;10.476;2022-11-12T13:28:06;12.15;;;6.85;;
75542;SDS011;64129;53.508;10.476;2022-11-12T13:33:38;10.45;;;6.18;;
75542;SDS011;64129;53.508;10.476;2022-11-12T13:36:27;9.15;;;6.15;;
75542;SDS011;64129;53.508;10.476;2022-11-12T13:39:14;10.98;;;5.32;;
75542;SDS011;64129;53.508;10.476;2022-11-12T13:42:08;9.88;;;5.80;;
75542;SDS011;64129;53.508;10.476;2022-11-12T13:45:16;9.25;;;6.32;;
75542;SDS011;64129;53.508;10.476;2022-11-12T13:48:05;8.80;;;5.82;;
75542;SDS011;64129;53.508;10.476;2022-11-12T13:50:53;9.27;;;6.55;;
75542;SDS011;64129;53.508;10.476;2022-11-12T13:53:42;9.00;;;6.22;;
75542;SDS011;64129;53.508;10.476;2022-11-12T13:56:31;7.78;;;5.78;;
75542;SDS011;64129;53.508;10.476;2022-11-12T13:59:22;9.23;;;6.97;;
75542;SDS011;64129;53.508;10.476;2022-11-12T14:05:12;9.10;;;6.70;;
75542;SDS011;64129;53.508;10.476;2022-11-12T14:08:12;8.55;;;6.45;;
75542;SDS011;64129;53.508;10.476;2022-11-12T14:21:05;10.40;;;6.72;;
75542;SDS011;64129;53.508;10.476;2022-11-12T14:23:55;11.70;;;7.95;;
75542;SDS011;64129;53.508;10.476;2022-11-12T14:26:41;14.75;;;10.35;;
75542;SDS011;64129;53.508;10.476;2022-11-12T14:29:27;14.15;;;10.13;;
75542;SDS011;64129;53.508;10.476;2022-11-12T14:32:15;13.10;;;9.65;;
75542;SDS011;64129;53.508;10.476;2022-11-12T14:35:15;14.00;;;8.80;;
75542;SDS011;64129;53.508;10.476;2022-11-12T14:38:13;8.70;;;6.85;;
75542;SDS011;64129;53.508;10.476;2022-11-12T14:41:06;10.32;;;7.25;;
75542;SDS011;64129;53.508;10.476;2022-11-12T14:43:54;10.48;;;6.88;;
75542;SDS011;64129;53.508;10.476;2022-11-12T14:46:54;12.05;;;7.30;;
75542;SDS011;64129;53.508;10.476;2022-11-12T14:49:42;9.48;;;6.40;;
75542;SDS011;64129;53.508;10.476;2022-11-12T14:52:32;9.57;;;6.57;;
75542;SDS011;64129;53.508;10.476;2022-11-12T14:55:23;10.85;;;6.38;;
75542;SDS011;64129;53.508;10.476;2022-11-12T14:58:15;9.20;;;7.00;;
75542;SDS011;64129;53.508;10.476;2022-11-12T15:04:33;7.90;;;6.65;;
75542;SDS011;64129;53.508;10.476;2022-11-12T15:07:30;10.95;;;7.38;;
75542;SDS011;64129;53.508;10.476;2022-11-12T15:13:16;11.15;;;7.35;;
75542;SDS011;64129;53.508;10.476;2022-11-12T15:16:04;11.88;;;7.63;;
75542;SDS011;64129;53.508;10.476;2022-11-12T15:19:12;11.27;;;7.13;;
75542;SDS011;64129;53.508;10.476;2022-11-12T15:22:21;11.98;;;7.03;;
75542;SDS011;64129;53.508;10.476;2022-11-12T15:25:10;13.05;;;7.80;;
75542;SDS011;64129;53.508;10.476;2022-11-12T15:28:18;10.95;;;7.30;;
75542;SDS011;64129;53.508;10.476;2022-11-12T15:31:26;9.07;;;7.28;;
75542;SDS011;64129;53.508;10.476;2022-11-12T15:34:22;11.23;;;7.70;;
75542;SDS011;64129;53.508;10.476;2022-11-12T15:40:02;13.05;;;8.73;;
75542;SDS011;64129;53.508;10.476;2022-11-12T15:42:56;14.25;;;9.32;;
75542;SDS011;64129;53.508;10.476;2022-11-12T15:45:41;15.93;;;8.05;;
75542;SDS011;64129;53.508;10.476;2022-11-12T15:48:27;14.15;;;8.60;;
75542;SDS011;64129;53.508;10.476;2022-11-12T15:51:11;14.20;;;9.15;;
75542;SDS011;64129;53.508;10.476;2022-11-12T15:53:59;12.95;;;9.27;;
75542;SDS011;64129;53.508;10.476;2022-11-12T15:56:44;11.90;;;9.45;;
75542;SDS011;64129;53.508;10.476;2022-11-12T15:59:30;13.93;;;9.65;;
75542;SDS011;64129;53.508;10.476;2022-11-12T16:02:15;15.88;;;11.55;;
75542;SDS011;64129;53.508;10.476;2022-11-12T16:05:00;18.75;;;11.80;;
75542;SDS011;64129;53.508;10.476;2022-11-12T16:07:45;15.50;;;11.65;;
75542;SDS011;64129;53.508;10.476;2022-11-12T16:10:30;15.38;;;12.10;;
75542;SDS011;64129;53.508;10.476;2022-11-12T16:13:26;16.75;;;12.85;;
75542;SDS011;64129;53.508;10.476;2022-11-12T16:16:13;17.45;;;12.43;;
75542;SDS011;64129;53.508;10.476;2022-11-12T16:18:58;18.98;;;13.68;;
75542;SDS011;64129;53.508;10.476;2022-11-12T16:21:43;17.27;;;14.02;;
75542;SDS011;64129;53.508;10.476;2022-11-12T16:24:28;17.20;;;13.07;;
75542;SDS011;64129;53.508;10.476;2022-11-12T16:27:13;17.05;;;13.50;;
75542;SDS011;64129;53.508;10.476;2022-11-12T16:29:59;21.55;;;13.88;;
75542;SDS011;64129;53.508;10.476;2022-11-12T16:32:44;18.65;;;12.75;;
75542;SDS011;64129;53.508;10.476;2022-11-12T16:35:31;17.92;;;12.95;;
75542;SDS011;64129;53.508;10.476;2022-11-12T16:38:18;20.73;;;14.68;;
75542;SDS011;64129;53.508;10.476;2022-11-12T16:41:03;17.38;;;13.00;;
75542;SDS011;64129;53.508;10.476;2022-11-12T16:46:23;20.88;;;12.77;;
75542;SDS011;64129;53.508;10.476;2022-11-12T16:49:11;16.88;;;11.85;;
75542;SDS011;64129;53.508;10.476;2022-11-12T16:51:57;18.33;;;12.27;;
75542;SDS011;64129;53.508;10.476;2022-11-12T16:54:42;16.52;;;11.45;;
75542;SDS011;64129;53.508;10.476;2022-11-12T16:57:27;15.00;;;10.65;;
75542;SDS011;64129;53.508;10.476;2022-11-12T17:00:13;15.25;;;10.57;;
75542;SDS011;64129;53.508;10.476;2022-11-12T17:03:00;13.18;;;10.38;;
75542;SDS011;64129;53.508;10.476;2022-11-12T17:05:49;10.63;;;9.02;;
75542;SDS011;64129;53.508;10.476;2022-11-12T17:08:36;12.75;;;10.23;;
75542;SDS011;64129;53.508;10.476;2022-11-12T17:11:21;14.30;;;11.82;;
75542;SDS011;64129;53.508;10.476;2022-11-12T17:14:07;18.75;;;13.98;;
75542;SDS011;64129;53.508;10.476;2022-11-12T17:16:52;13.60;;;11.45;;
75542;SDS011;64129;53.508;10.476;2022-11-12T17:19:37;16.65;;;13.25;;
75542;SDS011;64129;53.508;10.476;2022-11-12T17:22:22;14.77;;;13.15;;
75542;SDS011;64129;53.508;10.476;2022-11-12T17:25:07;12.13;;;9.23;;
75542;SDS011;64129;53.508;10.476;2022-11-12T17:27:52;12.73;;;11.43;;
75542;SDS011;64129;53.508;10.476;2022-11-12T17:30:37;15.98;;;11.93;;
75542;SDS011;64129;53.508;10.476;2022-11-12T17:33:22;15.10;;;12.90;;
75542;SDS011;64129;53.508;10.476;2022-11-12T17:36:08;17.45;;;13.95;;
75542;SDS011;64129;53.508;10.476;2022-11-12T17:38:58;14.07;;;11.20;;
75542;SDS011;64129;53.508;10.476;2022-11-12T17:41:44;13.82;;;11.40;;
75542;SDS011;64129;53.508;10.476;2022-11-12T17:44:29;15.88;;;11.75;;
75542;SDS011;64129;53.508;10.476;2022-11-12T17:47:14;14.98;;;10.45;;
75542;SDS011;64129;53.508;10.476;2022-11-12T17:49:59;16.80;;;11.50;;
75542;SDS011;64129;53.508;10.476;2022-11-12T17:52:44;18.55;;;12.45;;
75542;SDS011;64129;53.508;10.476;2022-11-12T17:55:29;14.25;;;11.45;;
75542;SDS011;64129;53.508;10.476;2022-11-12T17:58:14;14.93;;;11.80;;
75542;SDS011;64129;53.508;10.476;2022-11-12T18:01:03;14.77;;;12.45;;
75542;SDS011;64129;53.508;10.476;2022-11-12T18:03:52;15.00;;;13.05;;
75542;SDS011;64129;53.508;10.476;2022-11-12T18:06:39;17.73;;;13.18;;
75542;SDS011;64129;53.508;10.476;2022-11-12T18:09:24;17.48;;;12.23;;
75542;SDS011;64129;53.508;10.476;2022-11-12T18:12:09;15.50;;;12.85;;
75542;SDS011;64129;53.508;10.476;2022-11-12T18:14:54;15.27;;;12.77;;
75542;SDS011;64129;53.508;10.476;2022-11-12T18:17:38;20.77;;;16.70;;